Time;durP1;ratioP1;P1;durP2;ratioP2;P2;SDS_P1;SDS_P2;PMS_P1;PMS_P2;Temp;Humidity;BMP_temperature;BMP_pressure;BME280_temperature;BME280_humidity;BME280_pressure;Samples;Min_cycle;Max_cycle;Signal;HPM_P1;HPM_P2
2021/06/24 00:00:07;;;;;;;12.20;3.97;;;;;;;;;;3601720;39;20254;-64
2021/06/24 00:02:33;;;;;;;7.78;3.95;;;;;;;;;;3603528;39;20260;-64
2021/06/24 00:04:58;;;;;;;7.57;3.97;;;;;;;;;;3605786;39;20071;-64
2021/06/24 00:07:24;;;;;;;6.47;3.70;;;;;;;;;;3606635;39;20253;-64
2021/06/24 00:09:52;;;;;;;7.88;3.70;;;;;;;;;;3605871;39;20526;-63
2021/06/24 00:12:17;;;;;;;8.65;4.70;;;;;;;;;;3602769;39;20024;-65
2021/06/24 00:14:43;;;;;;;10.20;4.95;;;;;;;;;;3602346;39;20028;-64
2021/06/24 00:17:08;;;;;;;9.57;5.93;;;;;;;;;;3602291;39;20115;-64
2021/06/24 00:19:33;;;;;;;11.27;4.47;;;;;;;;;;3603742;39;20046;-65
2021/06/24 00:21:58;;;;;;;13.53;4.70;;;;;;;;;;3606428;39;20292;-64
2021/06/24 00:24:23;;;;;;;10.70;4.20;;;;;;;;;;3606512;39;20381;-64
2021/06/24 00:26:49;;;;;;;5.60;4.03;;;;;;;;;;3608776;39;20102;-64
2021/06/24 00:29:14;;;;;;;10.07;4.50;;;;;;;;;;3609565;39;20900;-64
2021/06/24 00:31:39;;;;;;;8.50;4.13;;;;;;;;;;3610613;39;20112;-64
2021/06/24 00:34:04;;;;;;;6.73;3.80;;;;;;;;;;3611645;39;20258;-65
2021/06/24 00:36:30;;;;;;;7.18;4.20;;;;;;;;;;3608849;39;20260;-65
2021/06/24 00:38:55;;;;;;;9.40;4.23;;;;;;;;;;3608961;39;20043;-65
2021/06/24 00:41:20;;;;;;;6.57;4.13;;;;;;;;;;3606563;39;20366;-65
2021/06/24 00:43:45;;;;;;;12.77;6.28;;;;;;;;;;3605672;39;20054;-65
2021/06/24 00:46:11;;;;;;;7.03;4.20;;;;;;;;;;3603594;39;20040;-65
2021/06/24 00:48:36;;;;;;;7.72;4.32;;;;;;;;;;3602083;39;20031;-65
2021/06/24 00:51:01;;;;;;;7.57;4.27;;;;;;;;;;3603281;39;20374;-65
2021/06/24 00:53:26;;;;;;;13.20;4.80;;;;;;;;;;3608259;39;20071;-65
2021/06/24 00:55:52;;;;;;;10.47;4.13;;;;;;;;;;3607368;39;20032;-64
2021/06/24 00:58:20;;;;;;;9.85;4.07;;;;;;;;;;3604645;39;20289;-65
2021/06/24 01:00:46;;;;;;;10.57;4.65;;;;;;;;;;3603086;39;20038;-65
2021/06/24 01:03:12;;;;;;;14.43;5.65;;;;;;;;;;3608294;39;20297;-65
2021/06/24 01:05:38;;;;;;;6.13;5.10;;;;;;;;;;3608918;39;20031;-65
2021/06/24 01:08:03;;;;;;;8.60;4.88;;;;;;;;;;3608662;39;20036;-65
2021/06/24 01:10:31;;;;;;;7.47;4.40;;;;;;;;;;3605762;39;20094;-65
2021/06/24 01:12:56;;;;;;;11.68;4.85;;;;;;;;;;3603304;39;20124;-65
2021/06/24 01:15:22;;;;;;;9.00;4.90;;;;;;;;;;3605902;39;20039;-64
2021/06/24 01:17:47;;;;;;;12.50;5.43;;;;;;;;;;3608679;39;20051;-65
2021/06/24 01:20:12;;;;;;;11.18;5.45;;;;;;;;;;3599420;39;20104;-64
2021/06/24 01:22:38;;;;;;;9.75;4.80;;;;;;;;;;3600161;39;20805;-64
2021/06/24 01:25:04;;;;;;;12.38;4.95;;;;;;;;;;3606848;39;20060;-65
2021/06/24 01:27:30;;;;;;;9.27;5.10;;;;;;;;;;3602394;39;20051;-64
2021/06/24 01:29:55;;;;;;;9.80;5.13;;;;;;;;;;3605112;39;20024;-65
2021/06/24 01:32:20;;;;;;;11.63;4.73;;;;;;;;;;3606459;39;20081;-65
2021/06/24 01:34:45;;;;;;;9.02;5.07;;;;;;;;;;3605583;39;20036;-65
2021/06/24 01:37:11;;;;;;;11.60;4.65;;;;;;;;;;3600668;39;20036;-65
2021/06/24 01:39:36;;;;;;;12.27;6.00;;;;;;;;;;3602446;39;20039;-65
2021/06/24 01:42:01;;;;;;;6.55;4.55;;;;;;;;;;3608128;39;20035;-65
2021/06/24 01:44:34;;;;;;;13.40;5.82;;;;;;;;;;3600506;39;20035;-64
2021/06/24 01:47:00;;;;;;;11.82;6.25;;;;;;;;;;3604994;39;20027;-65
2021/06/24 01:49:25;;;;;;;15.90;6.47;;;;;;;;;;3602479;39;20475;-65
2021/06/24 01:51:51;;;;;;;10.43;4.80;;;;;;;;;;3605523;39;20043;-65
2021/06/24 01:54:16;;;;;;;8.07;5.23;;;;;;;;;;3607534;39;20028;-65
2021/06/24 01:56:41;;;;;;;9.77;4.80;;;;;;;;;;3602473;39;20028;-65
2021/06/24 01:59:07;;;;;;;13.02;5.28;;;;;;;;;;3601059;39;20034;-60
2021/06/24 02:01:38;;;;;;;7.20;4.93;;;;;;;;;;3600269;39;20080;-61
2021/06/24 02:04:12;;;;;;;7.75;4.53;;;;;;;;;;3603748;39;20043;-61
2021/06/24 02:06:37;;;;;;;7.45;4.75;;;;;;;;;;3605289;39;20059;-61
2021/06/24 02:09:16;;;;;;;9.43;4.80;;;;;;;;;;3601273;39;20742;-61
2021/06/24 02:11:50;;;;;;;12.60;5.25;;;;;;;;;;3608286;39;20056;-61
2021/06/24 02:14:18;;;;;;;10.85;5.45;;;;;;;;;;3609265;39;20036;-61
2021/06/24 02:16:43;;;;;;;9.75;5.13;;;;;;;;;;3608216;39;20031;-61
2021/06/24 02:19:09;;;;;;;8.90;5.25;;;;;;;;;;3604992;39;20513;-61
2021/06/24 02:21:49;;;;;;;7.05;4.78;;;;;;;;;;3604312;39;20279;-61
2021/06/24 02:24:16;;;;;;;8.48;4.72;;;;;;;;;;3607869;39;20082;-61
2021/06/24 02:26:50;;;;;;;6.88;5.20;;;;;;;;;;3607966;39;20044;-61
2021/06/24 02:29:38;;;;;;;10.55;5.15;;;;;;;;;;3597035;39;20040;-61
2021/06/24 02:32:04;;;;;;;10.55;5.72;;;;;;;;;;3603485;39;20072;-61
2021/06/24 02:34:42;;;;;;;14.48;5.78;;;;;;;;;;3604999;39;20035;-61
2021/06/24 02:37:14;;;;;;;9.05;5.47;;;;;;;;;;3603349;39;20043;-61
2021/06/24 02:39:58;;;;;;;11.63;5.43;;;;;;;;;;3608681;39;20042;-61
2021/06/24 02:42:28;;;;;;;15.43;5.57;;;;;;;;;;3609426;39;20046;-61
2021/06/24 02:44:53;;;;;;;10.17;6.03;;;;;;;;;;3607091;39;20023;-61
2021/06/24 02:47:19;;;;;;;14.73;6.20;;;;;;;;;;3607382;39;20133;-60
2021/06/24 02:49:44;;;;;;;15.70;6.07;;;;;;;;;;3607687;39;20277;-61
2021/06/24 02:52:11;;;;;;;10.23;5.65;;;;;;;;;;3606285;39;20027;-61
2021/06/24 02:54:37;;;;;;;9.27;5.68;;;;;;;;;;3605426;39;20050;-61
2021/06/24 02:57:03;;;;;;;10.20;5.80;;;;;;;;;;3605993;39;20531;-61
2021/06/24 02:59:47;;;;;;;9.55;5.60;;;;;;;;;;3603119;39;20400;-61
2021/06/24 03:02:13;;;;;;;11.45;5.50;;;;;;;;;;3610068;39;20043;-60
2021/06/24 03:04:40;;;;;;;10.90;5.97;;;;;;;;;;3610027;39;20028;-61
2021/06/24 03:07:06;;;;;;;10.80;5.93;;;;;;;;;;3608010;39;20065;-61
2021/06/24 03:09:37;;;;;;;14.90;5.95;;;;;;;;;;3605926;39;20081;-61
2021/06/24 03:12:03;;;;;;;12.73;5.88;;;;;;;;;;3602943;39;20032;-61
2021/06/24 03:14:33;;;;;;;11.60;6.07;;;;;;;;;;3604323;39;20034;-61
2021/06/24 03:16:59;;;;;;;10.70;5.40;;;;;;;;;;3600933;39;20142;-61
2021/06/24 03:19:24;;;;;;;14.30;5.90;;;;;;;;;;3602004;39;20109;-61
2021/06/24 03:22:00;;;;;;;15.70;5.82;;;;;;;;;;3604468;39;20314;-61
2021/06/24 03:24:30;;;;;;;14.95;6.55;;;;;;;;;;3606254;39;20044;-61
2021/06/24 03:26:56;;;;;;;10.90;5.22;;;;;;;;;;3607083;39;20586;-61
2021/06/24 03:29:21;;;;;;;10.70;5.63;;;;;;;;;;3605333;39;20035;-61
2021/06/24 03:31:50;;;;;;;9.95;5.70;;;;;;;;;;3602334;39;20370;-61
2021/06/24 03:34:22;;;;;;;10.57;5.80;;;;;;;;;;3604066;39;20668;-61
2021/06/24 03:36:47;;;;;;;14.80;5.72;;;;;;;;;;3602975;39;20035;-61
2021/06/24 03:39:14;;;;;;;11.55;5.55;;;;;;;;;;3605221;39;20038;-61
2021/06/24 03:41:39;;;;;;;11.35;5.45;;;;;;;;;;3604347;39;20024;-61
2021/06/24 03:44:05;;;;;;;12.57;5.60;;;;;;;;;;3605977;39;20042;-61
2021/06/24 03:46:32;;;;;;;10.55;5.65;;;;;;;;;;3604605;39;20646;-61
2021/06/24 03:48:58;;;;;;;10.27;5.68;;;;;;;;;;3601340;39;20075;-61
2021/06/24 03:51:23;;;;;;;10.77;5.55;;;;;;;;;;3600181;39;20027;-61
2021/06/24 03:53:55;;;;;;;14.18;6.35;;;;;;;;;;3601926;39;20531;-61
2021/06/24 03:56:21;;;;;;;14.38;6.07;;;;;;;;;;3604020;39;20043;-61
2021/06/24 03:58:48;;;;;;;13.48;6.18;;;;;;;;;;3605489;39;20038;-61
2021/06/24 04:01:14;;;;;;;14.90;6.55;;;;;;;;;;3604779;39;20031;-61
2021/06/24 04:03:39;;;;;;;14.13;6.72;;;;;;;;;;3604433;39;20031;-62
2021/06/24 04:06:08;;;;;;;12.48;6.03;;;;;;;;;;3610922;39;20112;-61
2021/06/24 04:08:34;;;;;;;13.18;6.03;;;;;;;;;;3605219;39;20035;-61
2021/06/24 04:11:01;;;;;;;11.85;6.15;;;;;;;;;;3605668;39;20032;-61
2021/06/24 04:13:27;;;;;;;14.90;6.60;;;;;;;;;;3605881;39;20080;-61
2021/06/24 04:15:53;;;;;;;11.23;6.53;;;;;;;;;;3603451;39;20412;-61
2021/06/24 04:18:20;;;;;;;15.40;6.60;;;;;;;;;;3609893;39;20127;-61
2021/06/24 04:20:47;;;;;;;12.43;6.18;;;;;;;;;;3608511;39;20191;-61
2021/06/24 04:23:13;;;;;;;12.70;6.25;;;;;;;;;;3611629;39;20059;-61
2021/06/24 04:25:58;;;;;;;16.35;6.57;;;;;;;;;;3606954;39;20094;-61
2021/06/24 04:28:23;;;;;;;14.80;6.63;;;;;;;;;;3604970;39;20042;-61
2021/06/24 04:30:59;;;;;;;12.52;6.15;;;;;;;;;;3606926;39;20042;-61
2021/06/24 04:33:25;;;;;;;14.65;6.25;;;;;;;;;;3605530;39;20031;-61
2021/06/24 04:36:19;;;;;;;15.07;7.13;;;;;;;;;;3603760;39;20127;-61
2021/06/24 04:38:48;;;;;;;12.77;5.80;;;;;;;;;;3602698;39;20134;-60
2021/06/24 04:41:13;;;;;;;14.43;5.97;;;;;;;;;;3601518;39;20425;-61
2021/06/24 04:43:59;;;;;;;12.77;6.53;;;;;;;;;;3603616;39;20492;-61
2021/06/24 04:46:27;;;;;;;14.50;6.28;;;;;;;;;;3603326;39;20055;-61
2021/06/24 04:48:52;;;;;;;9.57;5.30;;;;;;;;;;3604797;39;20035;-61
2021/06/24 04:51:38;;;;;;;11.77;5.70;;;;;;;;;;3606079;39;20043;-61
2021/06/24 04:54:03;;;;;;;11.00;5.45;;;;;;;;;;3603702;39;20035;-61
2021/06/24 04:56:33;;;;;;;13.85;6.03;;;;;;;;;;3598999;39;20023;-61
2021/06/24 04:58:58;;;;;;;9.57;5.80;;;;;;;;;;3602087;39;20705;-61
2021/06/24 05:01:42;;;;;;;18.83;6.18;;;;;;;;;;3607632;39;20287;-61
2021/06/24 05:04:26;;;;;;;16.48;6.50;;;;;;;;;;3606351;39;20034;-61
2021/06/24 05:06:53;;;;;;;12.97;6.07;;;;;;;;;;3605794;39;20079;-61
2021/06/24 05:09:26;;;;;;;17.60;6.25;;;;;;;;;;3607018;39;20400;-61
2021/06/24 05:11:51;;;;;;;13.90;5.88;;;;;;;;;;3604636;39;20081;-61
2021/06/24 05:14:16;;;;;;;13.83;6.07;;;;;;;;;;3609940;39;20047;-61
2021/06/24 05:16:41;;;;;;;13.93;5.67;;;;;;;;;;3608275;39;20528;-61
2021/06/24 05:19:07;;;;;;;23.27;7.53;;;;;;;;;;3604217;39;20105;-61
2021/06/24 05:21:32;;;;;;;17.40;6.30;;;;;;;;;;3605935;39;20042;-61
2021/06/24 05:23:57;;;;;;;15.60;6.20;;;;;;;;;;3606995;39;20366;-61
2021/06/24 05:26:22;;;;;;;11.45;5.55;;;;;;;;;;3605890;39;21153;-61
2021/06/24 05:28:48;;;;;;;22.13;6.67;;;;;;;;;;3603086;39;20035;-61
2021/06/24 05:31:13;;;;;;;16.63;6.53;;;;;;;;;;3602233;39;20099;-61
2021/06/24 05:33:38;;;;;;;10.93;5.67;;;;;;;;;;3602720;39;20689;-61
2021/06/24 05:36:03;;;;;;;10.65;5.38;;;;;;;;;;3604431;39;20282;-61
2021/06/24 05:38:29;;;;;;;14.50;6.03;;;;;;;;;;3606489;39;20048;-61
2021/06/24 05:40:55;;;;;;;17.37;6.20;;;;;;;;;;3604557;39;20405;-61
2021/06/24 05:43:20;;;;;;;15.48;5.93;;;;;;;;;;3603262;39;20094;-61
2021/06/24 05:45:45;;;;;;;10.55;5.35;;;;;;;;;;3600331;39;20028;-61
2021/06/24 05:48:10;;;;;;;13.93;5.70;;;;;;;;;;3605241;39;20304;-61
2021/06/24 05:50:36;;;;;;;15.70;6.37;;;;;;;;;;3609893;39;20358;-61
2021/06/24 05:53:01;;;;;;;14.93;6.30;;;;;;;;;;3606537;39;20105;-61
2021/06/24 05:58:11;;;;;;;12.50;5.88;;;;;;;;;;3604895;39;20042;-61
2021/06/24 06:00:36;;;;;;;14.50;5.80;;;;;;;;;;3604197;39;20313;-61
2021/06/24 06:03:01;;;;;;;12.77;6.17;;;;;;;;;;3603127;39;20112;-61
2021/06/24 06:05:26;;;;;;;13.20;6.90;;;;;;;;;;3604204;39;20042;-61
2021/06/24 06:07:51;;;;;;;14.90;6.20;;;;;;;;;;3606236;39;20100;-61
2021/06/24 06:10:17;;;;;;;13.90;5.97;;;;;;;;;;3608144;39;20120;-61
2021/06/24 06:12:42;;;;;;;15.47;6.47;;;;;;;;;;3607615;39;20031;-61
2021/06/24 06:15:08;;;;;;;10.53;6.27;;;;;;;;;;3606184;39;20019;-61
2021/06/24 06:17:33;;;;;;;21.85;7.03;;;;;;;;;;3602619;39;20012;-62
2021/06/24 06:19:58;;;;;;;10.23;6.30;;;;;;;;;;3609498;39;20054;-61
2021/06/24 06:22:24;;;;;;;16.13;5.93;;;;;;;;;;3611331;39;20027;-61
2021/06/24 06:24:49;;;;;;;14.23;5.97;;;;;;;;;;3604827;39;20120;-65
2021/06/24 06:27:14;;;;;;;10.90;6.20;;;;;;;;;;3601773;39;20039;-65
2021/06/24 06:29:39;;;;;;;17.30;6.40;;;;;;;;;;3602796;39;20076;-65
2021/06/24 06:32:05;;;;;;;16.30;6.67;;;;;;;;;;3600783;39;20027;-65
2021/06/24 06:34:30;;;;;;;16.87;7.27;;;;;;;;;;3601919;39;20024;-65
2021/06/24 06:36:55;;;;;;;15.10;7.20;;;;;;;;;;3600618;39;20060;-64
2021/06/24 06:39:20;;;;;;;11.60;6.63;;;;;;;;;;3603719;39;20668;-64
2021/06/24 06:41:45;;;;;;;13.17;6.77;;;;;;;;;;3604040;39;20038;-65
2021/06/24 06:44:11;;;;;;;16.83;6.87;;;;;;;;;;3605859;39;20727;-65
2021/06/24 06:46:36;;;;;;;14.77;6.50;;;;;;;;;;3603191;39;20108;-64
2021/06/24 06:49:01;;;;;;;12.40;6.50;;;;;;;;;;3606429;39;20059;-64
2021/06/24 06:51:26;;;;;;;20.13;6.97;;;;;;;;;;3604454;39;20035;-64
2021/06/24 06:53:51;;;;;;;16.47;7.43;;;;;;;;;;3609291;39;20970;-64
2021/06/24 06:56:17;;;;;;;18.48;6.88;;;;;;;;;;3603558;39;20245;-64
2021/06/24 06:58:42;;;;;;;22.87;7.17;;;;;;;;;;3604357;39;20607;-64
2021/06/24 07:01:07;;;;;;;17.52;7.53;;;;;;;;;;3605341;39;20253;-64
2021/06/24 07:03:33;;;;;;;13.63;5.97;;;;;;;;;;3605925;39;20723;-64
2021/06/24 07:05:58;;;;;;;15.30;6.30;;;;;;;;;;3608718;39;20076;-64
2021/06/24 07:08:23;;;;;;;14.20;6.67;;;;;;;;;;3609706;39;20810;-64
2021/06/24 07:10:48;;;;;;;15.88;6.25;;;;;;;;;;3603979;39;20035;-63
2021/06/24 07:13:14;;;;;;;15.07;7.13;;;;;;;;;;3602434;39;20031;-65
2021/06/24 07:15:39;;;;;;;20.00;7.00;;;;;;;;;;3603742;39;20116;-65
2021/06/24 07:18:04;;;;;;;17.40;7.10;;;;;;;;;;3605571;39;20036;-65
2021/06/24 07:20:29;;;;;;;20.33;7.72;;;;;;;;;;3606561;39;20020;-65
2021/06/24 07:22:55;;;;;;;15.00;7.47;;;;;;;;;;3608417;39;20075;-65
2021/06/24 07:25:20;;;;;;;19.23;7.93;;;;;;;;;;3605155;39;20032;-65
2021/06/24 07:27:46;;;;;;;19.48;8.05;;;;;;;;;;3600908;39;20717;-65
2021/06/24 07:30:11;;;;;;;20.25;7.20;;;;;;;;;;3602790;39;20068;-65
2021/06/24 07:32:36;;;;;;;21.63;7.93;;;;;;;;;;3603629;39;20108;-64
2021/06/24 07:35:01;;;;;;;17.43;8.50;;;;;;;;;;3606419;39;20092;-65
2021/06/24 07:37:26;;;;;;;18.50;8.70;;;;;;;;;;3606194;39;20424;-64
2021/06/24 07:39:52;;;;;;;20.27;8.57;;;;;;;;;;3604849;39;20027;-64
2021/06/24 07:42:19;;;;;;;15.00;6.90;;;;;;;;;;3604397;39;20258;-64
2021/06/24 07:44:44;;;;;;;22.88;8.63;;;;;;;;;;3601332;39;20594;-63
2021/06/24 07:47:09;;;;;;;17.27;8.73;;;;;;;;;;3607083;39;20023;-63
2021/06/24 07:49:35;;;;;;;19.43;9.40;;;;;;;;;;3606058;39;20035;-64
2021/06/24 07:52:00;;;;;;;18.50;8.93;;;;;;;;;;3606306;39;20020;-64
2021/06/24 07:54:25;;;;;;;15.33;8.77;;;;;;;;;;3604778;39;20023;-63
2021/06/24 07:56:50;;;;;;;29.63;9.30;;;;;;;;;;3603059;39;20288;-64
2021/06/24 07:59:16;;;;;;;26.95;10.50;;;;;;;;;;3600184;39;20031;-65
2021/06/24 08:01:42;;;;;;;19.30;10.68;;;;;;;;;;3607535;39;20024;-65
2021/06/24 08:04:07;;;;;;;26.97;12.00;;;;;;;;;;3597992;39;20591;-67
2021/06/24 08:06:32;;;;;;;16.77;9.77;;;;;;;;;;3604491;39;20240;-67
2021/06/24 08:08:57;;;;;;;18.17;9.00;;;;;;;;;;3605121;39;20035;-67
2021/06/24 08:11:23;;;;;;;18.07;8.97;;;;;;;;;;3603985;39;20043;-66
2021/06/24 08:13:48;;;;;;;20.30;9.67;;;;;;;;;;3606566;39;20265;-66
2021/06/24 08:16:13;;;;;;;17.87;9.53;;;;;;;;;;3606704;39;20032;-65
2021/06/24 08:18:38;;;;;;;27.65;12.18;;;;;;;;;;3600708;39;20301;-66
2021/06/24 08:21:04;;;;;;;20.45;11.00;;;;;;;;;;3604982;39;20591;-67
2021/06/24 08:23:29;;;;;;;19.30;9.80;;;;;;;;;;3605481;39;20037;-67
2021/06/24 08:25:54;;;;;;;23.00;10.93;;;;;;;;;;3601395;39;20078;-67
2021/06/24 08:28:20;;;;;;;22.40;10.83;;;;;;;;;;3604355;39;20060;-67
2021/06/24 08:30:45;;;;;;;20.63;10.07;;;;;;;;;;3603815;39;20032;-66
2021/06/24 08:33:10;;;;;;;20.40;11.10;;;;;;;;;;3610181;39;20518;-66
2021/06/24 08:35:35;;;;;;;20.07;10.40;;;;;;;;;;3605167;39;20142;-66
2021/06/24 08:38:00;;;;;;;22.27;11.33;;;;;;;;;;3606168;39;20024;-65
2021/06/24 08:40:26;;;;;;;23.20;10.60;;;;;;;;;;3604405;39;20023;-66
2021/06/24 08:42:51;;;;;;;20.23;9.73;;;;;;;;;;3605401;39;21057;-65
2021/06/24 08:45:16;;;;;;;23.23;9.60;;;;;;;;;;3607213;39;20910;-65
2021/06/24 08:47:42;;;;;;;16.70;9.83;;;;;;;;;;3603911;39;20024;-65
2021/06/24 08:50:09;;;;;;;20.88;10.43;;;;;;;;;;3606029;39;20026;-65
2021/06/24 08:52:34;;;;;;;18.08;7.80;;;;;;;;;;3605787;39;20409;-65
2021/06/24 08:54:59;;;;;;;16.03;8.53;;;;;;;;;;3603632;39;20083;-65
2021/06/24 08:57:24;;;;;;;16.07;8.43;;;;;;;;;;3602717;39;20083;-65
2021/06/24 08:59:49;;;;;;;17.40;8.87;;;;;;;;;;3604333;39;20035;-63
2021/06/24 09:02:15;;;;;;;15.83;8.93;;;;;;;;;;3606307;39;20038;-65
2021/06/24 09:04:41;;;;;;;13.52;7.97;;;;;;;;;;3604535;39;20468;-65
2021/06/24 09:07:06;;;;;;;16.43;9.60;;;;;;;;;;3607885;39;20035;-65
2021/06/24 09:09:33;;;;;;;19.55;8.27;;;;;;;;;;3607628;39;20468;-66
2021/06/24 09:11:58;;;;;;;13.35;7.72;;;;;;;;;;3603729;39;20154;-65
2021/06/24 09:14:23;;;;;;;17.90;8.27;;;;;;;;;;3603668;39;20095;-64
2021/06/24 09:16:48;;;;;;;16.67;8.70;;;;;;;;;;3606983;39;20392;-65
2021/06/24 09:19:14;;;;;;;18.30;8.50;;;;;;;;;;3608315;39;20292;-66
2021/06/24 09:21:40;;;;;;;22.20;8.35;;;;;;;;;;3602784;39;20424;-66
2021/06/24 09:24:06;;;;;;;21.52;8.80;;;;;;;;;;3605308;39;20051;-66
2021/06/24 09:26:32;;;;;;;15.90;9.13;;;;;;;;;;3607892;39;20047;-65
2021/06/24 09:28:57;;;;;;;26.45;10.05;;;;;;;;;;3601192;39;20530;-65
2021/06/24 09:31:23;;;;;;;21.52;10.57;;;;;;;;;;3604113;39;20019;-64
2021/06/24 09:33:48;;;;;;;20.63;9.97;;;;;;;;;;3602660;39;20031;-65
2021/06/24 09:36:13;;;;;;;23.27;11.17;;;;;;;;;;3608784;39;20067;-65
2021/06/24 09:38:38;;;;;;;26.70;11.93;;;;;;;;;;3607197;39;20279;-66
2021/06/24 09:41:04;;;;;;;27.13;12.00;;;;;;;;;;3603336;39;20750;-65
2021/06/24 09:43:29;;;;;;;30.77;11.65;;;;;;;;;;3605865;39;20266;-66
2021/06/24 09:45:54;;;;;;;22.33;11.18;;;;;;;;;;3604080;39;20364;-64
2021/06/24 09:48:20;;;;;;;25.43;11.60;;;;;;;;;;3604095;39;20020;-65
2021/06/24 09:50:45;;;;;;;22.00;12.05;;;;;;;;;;3603993;39;20615;-64
2021/06/24 09:53:10;;;;;;;27.37;12.07;;;;;;;;;;3606447;39;20027;-65
2021/06/24 09:55:35;;;;;;;22.05;11.90;;;;;;;;;;3603902;39;20050;-65
2021/06/24 09:58:01;;;;;;;25.77;12.03;;;;;;;;;;3606331;39;20020;-65
2021/06/24 10:00:28;;;;;;;32.35;12.95;;;;;;;;;;3603496;39;20024;-64
2021/06/24 10:02:53;;;;;;;20.00;11.10;;;;;;;;;;3602222;39;20650;-64
2021/06/24 10:05:18;;;;;;;20.47;11.17;;;;;;;;;;3604144;39;20071;-65
2021/06/24 10:07:43;;;;;;;22.30;11.13;;;;;;;;;;3602139;39;20434;-65
2021/06/24 10:10:09;;;;;;;25.80;12.70;;;;;;;;;;3598835;39;20785;-65
2021/06/24 10:12:34;;;;;;;27.73;13.15;;;;;;;;;;3599479;39;20036;-65
2021/06/24 10:14:59;;;;;;;30.13;11.93;;;;;;;;;;3601477;39;20027;-64
2021/06/24 10:17:24;;;;;;;21.13;11.00;;;;;;;;;;3601828;39;20190;-65
2021/06/24 10:19:50;;;;;;;20.03;10.77;;;;;;;;;;3602723;39;20028;-65
2021/06/24 10:22:15;;;;;;;22.93;13.07;;;;;;;;;;3603012;39;20273;-65
2021/06/24 10:24:40;;;;;;;19.47;10.87;;;;;;;;;;3602494;39;20033;-66
2021/06/24 10:27:05;;;;;;;25.13;12.93;;;;;;;;;;3609734;39;20650;-66
2021/06/24 10:29:30;;;;;;;20.17;12.17;;;;;;;;;;3604609;39;20064;-66
2021/06/24 10:31:56;;;;;;;23.73;11.73;;;;;;;;;;3604668;39;20288;-65
2021/06/24 10:34:21;;;;;;;20.33;11.40;;;;;;;;;;3603356;39;20241;-66
2021/06/24 10:36:46;;;;;;;20.73;10.30;;;;;;;;;;3605764;39;20249;-65
2021/06/24 10:39:11;;;;;;;22.43;12.40;;;;;;;;;;3607317;39;20289;-66
2021/06/24 10:41:36;;;;;;;22.63;12.17;;;;;;;;;;3608088;39;20086;-64
2021/06/24 10:44:02;;;;;;;22.50;11.47;;;;;;;;;;3606547;39;20329;-64
2021/06/24 10:46:27;;;;;;;21.63;13.70;;;;;;;;;;3601419;39;20595;-63
2021/06/24 10:48:52;;;;;;;20.70;13.35;;;;;;;;;;3609405;39;20027;-64
2021/06/24 10:51:18;;;;;;;22.20;12.80;;;;;;;;;;3607795;39;20787;-63
2021/06/24 10:54:17;;;;;;;24.80;12.40;;;;;;;;;;3579012;39;20421;-66
2021/06/24 10:56:43;;;;;;;29.63;13.97;;;;;;;;;;3575609;40;20048;-64
2021/06/24 10:59:08;;;;;;;23.50;13.27;;;;;;;;;;3573518;40;20108;-66
2021/06/24 11:01:33;;;;;;;24.33;12.70;;;;;;;;;;3571696;40;20052;-63
2021/06/24 11:03:59;;;;;;;35.57;13.87;;;;;;;;;;3571701;39;20131;-64
2021/06/24 11:06:28;;;;;;;21.95;13.00;;;;;;;;;;3574360;39;20029;-64
2021/06/24 11:08:53;;;;;;;24.67;12.82;;;;;;;;;;3573184;40;20032;-63
2021/06/24 11:11:18;;;;;;;23.13;11.83;;;;;;;;;;3573178;40;20080;-63
2021/06/24 11:13:45;;;;;;;23.48;12.82;;;;;;;;;;3572552;39;20745;-62
2021/06/24 11:16:10;;;;;;;23.98;13.38;;;;;;;;;;3576210;40;20083;-63
2021/06/24 11:18:38;;;;;;;20.67;10.93;;;;;;;;;;3573436;40;20595;-62
2021/06/24 11:21:03;;;;;;;21.80;12.75;;;;;;;;;;3575109;40;20037;-64
2021/06/24 11:23:29;;;;;;;22.87;12.50;;;;;;;;;;3578185;40;20130;-63
2021/06/24 11:25:54;;;;;;;23.27;12.80;;;;;;;;;;3572219;40;20039;-64
2021/06/24 11:28:19;;;;;;;21.23;12.90;;;;;;;;;;3572957;40;20144;-64
2021/06/24 11:30:44;;;;;;;24.50;12.70;;;;;;;;;;3571697;40;20802;-64
2021/06/24 11:33:10;;;;;;;20.80;11.53;;;;;;;;;;3573655;40;20338;-65
2021/06/24 11:35:57;;;;;;;18.40;11.83;;;;;;;;;;3572712;40;20118;-65
2021/06/24 11:38:23;;;;;;;24.60;13.48;;;;;;;;;;3572043;40;20076;-64
2021/06/24 11:40:48;;;;;;;21.90;10.87;;;;;;;;;;3573321;40;20037;-64
2021/06/24 11:43:13;;;;;;;20.13;12.07;;;;;;;;;;3572112;40;20024;-64
2021/06/24 11:45:38;;;;;;;22.63;11.93;;;;;;;;;;3570488;40;20040;-63
2021/06/24 11:48:04;;;;;;;24.35;13.38;;;;;;;;;;3569201;40;20025;-63
2021/06/24 12:03:58;;;;;;;16.85;8.77;;;;;;;;;;3572036;40;20073;-63
2021/06/24 12:06:23;;;;;;;16.23;10.20;;;;;;;;;;3563758;40;20045;-64
2021/06/24 12:08:48;;;;;;;20.77;10.35;;;;;;;;;;3561247;40;20032;-63
2021/06/24 12:11:13;;;;;;;18.93;9.60;;;;;;;;;;3562421;40;20036;-62
2021/06/24 12:13:39;;;;;;;18.10;8.77;;;;;;;;;;3567473;40;20065;-63
2021/06/24 12:16:04;;;;;;;18.42;9.55;;;;;;;;;;3565728;40;20041;-63
2021/06/24 12:18:29;;;;;;;12.10;6.77;;;;;;;;;;3568062;40;20056;-63
2021/06/24 12:20:55;;;;;;;17.83;7.30;;;;;;;;;;3568815;40;20050;-63
2021/06/24 12:23:20;;;;;;;15.85;8.68;;;;;;;;;;3569173;40;20434;-63
2021/06/24 12:25:46;;;;;;;20.23;9.87;;;;;;;;;;3569658;40;20173;-63
2021/06/24 12:28:12;;;;;;;19.83;9.90;;;;;;;;;;3568159;40;20061;-61
2021/06/24 12:30:39;;;;;;;17.25;9.02;;;;;;;;;;3566296;40;20033;-63
2021/06/24 12:33:05;;;;;;;13.57;7.15;;;;;;;;;;3566083;40;20510;-63
2021/06/24 12:35:30;;;;;;;16.27;8.20;;;;;;;;;;3571013;40;20033;-65
2021/06/24 12:37:56;;;;;;;13.53;7.93;;;;;;;;;;3563115;40;20042;-66
2021/06/24 12:40:21;;;;;;;13.13;7.50;;;;;;;;;;3565316;40;20029;-67
2021/06/24 12:42:46;;;;;;;15.98;8.70;;;;;;;;;;3562771;40;20260;-67
2021/06/24 12:45:12;;;;;;;14.10;8.30;;;;;;;;;;3567746;40;20157;-68
2021/06/24 12:47:39;;;;;;;16.60;9.43;;;;;;;;;;3568909;40;21062;-68
2021/06/24 12:50:04;;;;;;;12.45;7.07;;;;;;;;;;3563478;40;20029;-67
2021/06/24 12:52:29;;;;;;;14.73;8.67;;;;;;;;;;3565394;40;20503;-67
2021/06/24 12:54:54;;;;;;;19.17;10.70;;;;;;;;;;3573974;40;20134;-67
2021/06/24 12:57:20;;;;;;;20.07;9.90;;;;;;;;;;3570020;40;20036;-68
2021/06/24 12:59:45;;;;;;;17.80;8.67;;;;;;;;;;3568489;40;20377;-67
2021/06/24 13:02:10;;;;;;;16.97;9.80;;;;;;;;;;3567425;40;20574;-68
2021/06/24 13:04:35;;;;;;;13.27;8.30;;;;;;;;;;3570773;40;20160;-67
2021/06/24 13:07:01;;;;;;;18.15;9.35;;;;;;;;;;3568338;40;20028;-67
2021/06/24 13:09:26;;;;;;;17.85;8.27;;;;;;;;;;3567547;40;20057;-66
2021/06/24 13:11:52;;;;;;;14.60;7.63;;;;;;;;;;3567708;40;20149;-67
2021/06/24 13:14:17;;;;;;;14.67;8.37;;;;;;;;;;3575514;40;20033;-68
2021/06/24 13:16:42;;;;;;;13.90;7.77;;;;;;;;;;3564645;40;20843;-67
2021/06/24 13:19:07;;;;;;;13.27;8.17;;;;;;;;;;3564048;40;20033;-67
2021/06/24 13:21:32;;;;;;;17.73;9.95;;;;;;;;;;3564460;40;20409;-67
2021/06/24 13:23:58;;;;;;;15.40;9.00;;;;;;;;;;3565460;40;20825;-67
2021/06/24 13:26:23;;;;;;;14.90;8.53;;;;;;;;;;3562572;40;20256;-70
2021/06/24 13:28:48;;;;;;;14.53;8.30;;;;;;;;;;3565584;40;20625;-64
2021/06/24 13:31:13;;;;;;;13.83;9.03;;;;;;;;;;3564109;40;20268;-64
2021/06/24 13:33:38;;;;;;;17.07;9.47;;;;;;;;;;3574346;40;20068;-64
2021/06/24 13:36:04;;;;;;;13.77;8.30;;;;;;;;;;3566241;40;20034;-64
2021/06/24 13:38:29;;;;;;;18.67;10.43;;;;;;;;;;3566891;40;20335;-65
2021/06/24 13:40:54;;;;;;;22.53;9.40;;;;;;;;;;3564258;40;20073;-63
2021/06/24 13:43:19;;;;;;;15.17;8.67;;;;;;;;;;3568008;40;20039;-64
2021/06/24 13:45:46;;;;;;;14.53;8.33;;;;;;;;;;3568880;40;20041;-64
2021/06/24 13:48:12;;;;;;;16.63;8.88;;;;;;;;;;3565925;40;20061;-63
2021/06/24 13:50:38;;;;;;;12.13;8.00;;;;;;;;;;3566155;40;20045;-64
2021/06/24 13:53:03;;;;;;;12.80;7.40;;;;;;;;;;3566013;40;20432;-65
2021/06/24 13:55:38;;;;;;;13.37;7.83;;;;;;;;;;3563498;40;20045;-64
2021/06/24 13:58:03;;;;;;;11.95;7.07;;;;;;;;;;3564222;40;20021;-65
2021/06/24 14:00:28;;;;;;;14.73;7.93;;;;;;;;;;3561906;40;20032;-65
2021/06/24 14:02:53;;;;;;;20.10;9.50;;;;;;;;;;3568498;40;20025;-65
2021/06/24 14:05:18;;;;;;;17.87;9.57;;;;;;;;;;3567951;40;20021;-64
2021/06/24 14:07:44;;;;;;;14.17;7.40;;;;;;;;;;3566414;40;20046;-64
2021/06/24 14:10:09;;;;;;;14.30;7.77;;;;;;;;;;3561946;40;20279;-67
2021/06/24 14:12:35;;;;;;;16.30;8.50;;;;;;;;;;3564990;40;20115;-67
2021/06/24 14:15:00;;;;;;;14.13;7.53;;;;;;;;;;3563721;40;20077;-65
2021/06/24 14:17:26;;;;;;;18.27;8.07;;;;;;;;;;3562164;40;20020;-64
2021/06/24 14:19:51;;;;;;;15.23;7.93;;;;;;;;;;3566577;40;20047;-65
2021/06/24 14:22:16;;;;;;;19.48;10.55;;;;;;;;;;3559723;40;20707;-64
2021/06/24 14:24:41;;;;;;;17.60;8.27;;;;;;;;;;3564228;40;20907;-65
2021/06/24 14:27:06;;;;;;;10.67;6.47;;;;;;;;;;3564454;40;20033;-64
2021/06/24 14:29:33;;;;;;;14.87;6.93;;;;;;;;;;3562877;40;20041;-65
2021/06/24 14:31:58;;;;;;;12.88;6.82;;;;;;;;;;3564476;40;21016;-64
2021/06/24 14:34:24;;;;;;;10.33;7.03;;;;;;;;;;3565187;40;20060;-60
2021/06/24 14:36:49;;;;;;;18.00;9.40;;;;;;;;;;3567110;40;20049;-60
2021/06/24 14:39:14;;;;;;;11.97;7.10;;;;;;;;;;3563392;40;20034;-60